West Mansfield, Ohio
Current Conditions -  °F | °C
As of 8:30 AM on Sunday 21 Dec 2014 (Local Time) from KEDJ Reporting Station
Clear Clear  
Wind Chill: -8°   Ceiling: Unl
Heat Index: -5°   Visibility: 3mi
Dew Point: -5°   Wind: 5mph
Humidity: 100%   Direction: 130°SE
Pressure: 30.29"   Gusts: NA
Location:  40.4°N, 83.55°W
Report Text: KEDJ 211330Z AUTO 13004KT 3SM CLR M05/M05 A3029 RMK AO1
Loading
Personal Weather Stations






























Interactive Weather Map New forecast layout! Learn more

10-Day Weather Forecast

Advertisements
Track Severe Weather on mobile